Time;durP1;ratioP1;P1;durP2;ratioP2;P2;SDS_P1;SDS_P2;PMS_P1;PMS_P2;Temp;Humidity;BMP_temperature;BMP_pressure;BME280_temperature;BME280_humidity;BME280_pressure;Samples;Min_cycle;Max_cycle;Signal;HPM_P1;HPM_P2
2022/03/15 00:01:11;;;;;;;37.42;20.27;;;;;;;6.41;100.00;102788.13;5035276;28;20056;-51
2022/03/15 00:03:36;;;;;;;38.63;19.42;;;;;;;6.37;100.00;102791.91;5039899;28;20460;-50
2022/03/15 00:06:02;;;;;;;33.42;18.15;;;;;;;6.26;100.00;102784.53;5052424;28;20031;-49
2022/03/15 00:08:28;;;;;;;35.10;17.67;;;;;;;6.21;100.00;102798.06;5033525;28;20210;-52
2022/03/15 00:10:58;;;;;;;34.88;18.42;;;;;;;6.17;100.00;102791.19;5051985;28;20021;-50
2022/03/15 00:13:29;;;;;;;33.45;18.80;;;;;;;6.16;100.00;102782.41;5050926;28;20017;-51
2022/03/15 00:15:56;;;;;;;39.58;19.98;;;;;;;6.20;100.00;102782.22;5040186;28;20376;-50
2022/03/15 00:18:21;;;;;;;39.17;20.60;;;;;;;6.21;100.00;102778.63;5034358;28;20277;-50
2022/03/15 00:20:47;;;;;;;38.67;20.70;;;;;;;6.22;100.00;102775.88;5031658;28;20029;-51
2022/03/15 00:23:12;;;;;;;46.88;21.85;;;;;;;6.24;100.00;102781.09;5032009;28;20070;-52
2022/03/15 00:25:37;;;;;;;41.72;22.40;;;;;;;6.24;100.00;102774.00;5042730;28;20478;-48
2022/03/15 00:28:03;;;;;;;46.45;23.08;;;;;;;6.23;100.00;102779.38;5034325;28;20460;-50
2022/03/15 00:30:28;;;;;;;51.00;23.42;;;;;;;6.21;100.00;102773.31;5051483;28;20084;-52
2022/03/15 00:32:54;;;;;;;51.72;24.25;;;;;;;6.23;100.00;102780.25;5051684;28;20032;-49
2022/03/15 00:35:24;;;;;;;48.13;24.92;;;;;;;6.21;100.00;102779.50;5051245;28;20067;-51
2022/03/15 00:37:51;;;;;;;47.50;23.80;;;;;;;6.25;100.00;102780.19;5051668;28;20127;-52
2022/03/15 00:40:17;;;;;;;46.95;23.60;;;;;;;6.26;100.00;102776.56;5050778;28;20579;-50
2022/03/15 00:42:52;;;;;;;42.92;23.33;;;;;;;6.27;100.00;102773.81;5031340;28;20491;-55
2022/03/15 00:45:22;;;;;;;50.33;22.80;;;;;;;6.29;100.00;102771.09;5029375;28;20374;-51
2022/03/15 00:47:48;;;;;;;38.33;21.58;;;;;;;6.25;100.00;102764.25;5030803;28;20477;-52
2022/03/15 00:50:13;;;;;;;43.95;22.40;;;;;;;6.28;100.00;102764.94;5045712;28;20082;-50
2022/03/15 00:52:38;;;;;;;43.40;22.55;;;;;;;6.30;100.00;102765.69;5040625;28;20068;-48
2022/03/15 00:55:05;;;;;;;49.08;23.38;;;;;;;6.32;100.00;102758.50;5031097;28;20055;-50
2022/03/15 00:57:31;;;;;;;47.03;22.60;;;;;;;6.31;100.00;102762.13;5030646;28;20331;-51
2022/03/15 00:59:57;;;;;;;42.38;22.80;;;;;;;6.31;100.00;102759.47;5049213;28;20033;-52
2022/03/15 01:02:22;;;;;;;41.60;23.50;;;;;;;6.33;100.00;102762.88;5038500;28;20029;-50
2022/03/15 01:04:48;;;;;;;47.60;23.38;;;;;;;6.34;100.00;102761.91;5013000;28;20496;-51
2022/03/15 01:07:13;;;;;;;47.97;23.88;;;;;;;6.37;100.00;102754.75;5033784;28;20024;-51
2022/03/15 01:09:39;;;;;;;43.55;23.15;;;;;;;6.39;100.00;102759.03;5051126;28;20447;-51
2022/03/15 01:12:05;;;;;;;43.47;22.52;;;;;;;6.38;100.00;102762.59;5054312;28;20031;-49
2022/03/15 01:14:30;;;;;;;50.00;22.65;;;;;;;6.40;100.00;102760.75;5035454;28;20032;-50
2022/03/15 01:16:56;;;;;;;44.47;22.10;;;;;;;6.38;100.00;102751.97;5055035;28;20365;-52
2022/03/15 01:19:24;;;;;;;43.40;23.75;;;;;;;6.37;100.00;102755.59;5052456;28;20044;-51
2022/03/15 01:21:51;;;;;;;48.47;23.30;;;;;;;6.39;100.00;102752.88;5038927;28;20025;-51
2022/03/15 01:24:17;;;;;;;48.47;24.05;;;;;;;6.38;100.00;102759.94;5053301;28;20448;-50
2022/03/15 01:26:42;;;;;;;42.65;24.33;;;;;;;6.37;100.00;102749.44;5054995;28;20073;-49
2022/03/15 01:29:07;;;;;;;47.78;23.85;;;;;;;6.35;100.00;102753.03;5018105;28;20445;-51
2022/03/15 01:31:32;;;;;;;41.75;23.10;;;;;;;6.38;100.00;102746.69;5050984;28;20093;-49
2022/03/15 01:33:58;;;;;;;51.35;22.85;;;;;;;6.40;100.00;102750.13;5033421;28;20387;-52
2022/03/15 01:36:24;;;;;;;41.35;23.67;;;;;;;6.41;100.00;102741.19;5049242;28;20415;-51
2022/03/15 01:38:53;;;;;;;41.55;22.30;;;;;;;6.41;100.00;102743.00;5052271;28;20734;-51
2022/03/15 01:41:21;;;;;;;48.47;23.17;;;;;;;6.40;100.00;102744.81;5031204;28;20098;-51
2022/03/15 01:43:47;;;;;;;40.25;22.80;;;;;;;6.41;100.00;102740.34;5033954;28;20472;-53
2022/03/15 01:46:13;;;;;;;47.97;23.08;;;;;;;6.41;100.00;102732.41;5031604;28;20548;-51
2022/03/15 01:48:39;;;;;;;39.10;21.50;;;;;;;6.39;100.00;102737.78;5032296;28;20013;-51
2022/03/15 01:51:04;;;;;;;42.25;21.30;;;;;;;6.34;100.00;102738.03;5047946;28;20020;-52
2022/03/15 01:53:31;;;;;;;39.35;21.98;;;;;;;6.32;100.00;102731.13;5050642;28;20439;-53
2022/03/15 01:55:56;;;;;;;41.88;22.83;;;;;;;6.29;100.00;102726.81;5040339;28;20020;-52
2022/03/15 01:58:22;;;;;;;44.25;22.25;;;;;;;6.27;100.00;102723.41;5054024;28;20388;-51
2022/03/15 02:00:48;;;;;;;38.22;22.25;;;;;;;6.26;100.00;102724.38;5035761;28;20147;-50
2022/03/15 02:03:13;;;;;;;37.85;21.38;;;;;;;6.26;100.00;102720.84;5033918;28;20124;-51
2022/03/15 02:05:38;;;;;;;38.92;21.13;;;;;;;6.25;100.00;102716.50;5044794;28;20046;-51
2022/03/15 02:08:14;;;;;;;38.90;20.50;;;;;;;6.25;100.00;102713.84;5047762;28;20108;-50
2022/03/15 02:10:40;;;;;;;44.97;20.98;;;;;;;6.26;100.00;102721.72;5047421;28;20483;-53
2022/03/15 02:13:07;;;;;;;38.10;21.08;;;;;;;6.23;100.00;102716.56;5047738;28;20380;-52
2022/03/15 02:15:33;;;;;;;42.92;21.10;;;;;;;6.23;100.00;102718.34;5053805;28;20085;-51
2022/03/15 02:17:58;;;;;;;37.22;20.27;;;;;;;6.23;100.00;102715.69;5052595;28;20499;-50
2022/03/15 02:20:23;;;;;;;36.45;20.23;;;;;;;6.22;100.00;102708.72;5053221;28;20522;-49
2022/03/15 02:22:49;;;;;;;41.35;20.73;;;;;;;6.22;100.00;102703.41;5046979;28;20029;-50
2022/03/15 02:25:14;;;;;;;39.45;19.33;;;;;;;6.24;100.00;102698.84;5033923;28;20547;-52
2022/03/15 02:27:39;;;;;;;39.78;19.33;;;;;;;6.24;100.00;102699.69;5033317;28;20025;-50
2022/03/15 02:30:06;;;;;;;35.47;19.35;;;;;;;6.26;100.00;102700.50;5049878;28;20070;-49
2022/03/15 02:32:32;;;;;;;33.25;18.95;;;;;;;6.28;100.00;102700.38;5052196;28;20543;-49
2022/03/15 02:34:57;;;;;;;32.85;18.85;;;;;;;6.28;100.00;102695.06;5052751;28;20527;-52
2022/03/15 02:37:24;;;;;;;34.67;18.10;;;;;;;6.28;100.00;102688.00;5052469;28;20582;-51
2022/03/15 02:39:49;;;;;;;38.22;18.33;;;;;;;6.28;100.00;102682.69;5045000;28;20028;-49
2022/03/15 02:42:15;;;;;;;35.80;18.70;;;;;;;6.30;100.00;102687.91;5033451;28;21166;-51
2022/03/15 02:44:40;;;;;;;30.58;18.45;;;;;;;6.29;100.00;102689.69;5051858;28;20334;-49
2022/03/15 02:47:05;;;;;;;34.53;18.17;;;;;;;6.29;100.00;102679.06;5052600;28;20074;-49
2022/03/15 02:49:31;;;;;;;37.55;18.75;;;;;;;6.27;100.00;102680.09;5051940;28;20020;-50
2022/03/15 02:51:56;;;;;;;30.85;18.15;;;;;;;6.25;100.00;102677.53;5053792;28;20025;-54
2022/03/15 02:54:21;;;;;;;39.65;16.83;;;;;;;6.24;100.00;102675.81;5052943;28;20036;-51
2022/03/15 02:56:47;;;;;;;36.15;17.85;;;;;;;6.22;100.00;102671.56;5053084;28;20032;-49
2022/03/15 02:59:14;;;;;;;32.20;16.88;;;;;;;6.22;100.00;102676.88;5051773;28;20395;-51
2022/03/15 03:01:40;;;;;;;29.75;16.60;;;;;;;6.15;100.00;102669.25;5049967;28;20028;-51
2022/03/15 03:04:05;;;;;;;35.50;17.80;;;;;;;6.15;100.00;102666.59;5043469;28;20500;-50
2022/03/15 03:06:31;;;;;;;28.92;16.13;;;;;;;6.13;100.00;102667.63;5040377;28;20025;-50
2022/03/15 03:08:56;;;;;;;32.38;17.05;;;;;;;6.13;100.00;102659.69;5033706;28;20547;-48
2022/03/15 03:11:21;;;;;;;29.13;15.60;;;;;;;6.14;100.00;102656.94;5033325;28;20029;-51
2022/03/15 03:13:48;;;;;;;31.13;16.45;;;;;;;6.14;100.00;102653.41;5048509;28;20119;-50
2022/03/15 03:16:15;;;;;;;34.17;16.17;;;;;;;6.12;100.00;102655.31;5039335;28;20029;-48
2022/03/15 03:18:40;;;;;;;32.08;16.50;;;;;;;6.11;100.00;102653.59;5048334;28;20120;-51
2022/03/15 03:21:06;;;;;;;35.63;16.48;;;;;;;6.13;100.00;102657.88;5046367;28;20021;-50
2022/03/15 03:23:34;;;;;;;30.90;15.20;;;;;;;6.14;100.00;102648.09;5051648;28;20058;-52
2022/03/15 03:26:01;;;;;;;26.30;14.98;;;;;;;6.11;100.00;102642.97;5052904;28;20170;-52
2022/03/15 03:28:36;;;;;;;28.70;15.93;;;;;;;6.10;100.00;102641.28;5052161;28;20012;-49
2022/03/15 03:31:05;;;;;;;31.25;14.82;;;;;;;6.11;100.00;102642.97;5050681;28;20412;-49
2022/03/15 03:33:30;;;;;;;31.52;14.68;;;;;;;6.13;100.00;102641.09;5050097;28;20825;-50
2022/03/15 03:35:56;;;;;;;27.42;14.85;;;;;;;6.11;100.00;102646.50;5042730;28;20067;-51
2022/03/15 03:38:22;;;;;;;28.33;14.68;;;;;;;6.11;100.00;102640.31;5032203;28;20076;-50
2022/03/15 03:40:47;;;;;;;29.20;15.13;;;;;;;6.09;100.00;102636.91;5032662;28;20416;-51
2022/03/15 03:43:12;;;;;;;28.42;14.82;;;;;;;6.07;100.00;102641.44;5032410;28;20035;-53
2022/03/15 03:45:38;;;;;;;26.52;15.50;;;;;;;6.04;100.00;102636.31;5046396;28;20387;-48
2022/03/15 03:48:05;;;;;;;25.92;14.88;;;;;;;6.03;100.00;102640.78;5050014;28;20017;-52
2022/03/15 03:50:30;;;;;;;24.20;14.23;;;;;;;6.03;100.00;102643.44;5034828;28;20033;-53
2022/03/15 03:52:56;;;;;;;25.35;13.80;;;;;;;6.05;100.00;102638.03;5033081;28;20086;-51
2022/03/15 03:55:21;;;;;;;27.40;14.88;;;;;;;6.06;100.00;102643.25;5031627;28;20028;-49
2022/03/15 03:57:46;;;;;;;26.33;14.25;;;;;;;6.05;100.00;102643.34;5033831;28;20341;-50
2022/03/15 04:00:12;;;;;;;29.75;14.45;;;;;;;6.05;100.00;102636.22;5051976;28;20036;-51
2022/03/15 04:02:37;;;;;;;26.33;14.55;;;;;;;6.05;100.00;102638.88;5050896;28;20499;-52
2022/03/15 04:05:03;;;;;;;30.73;14.23;;;;;;;6.05;100.00;102644.19;5050914;28;20028;-51
2022/03/15 04:07:29;;;;;;;26.02;14.63;;;;;;;6.04;100.00;102636.31;5032421;28;20487;-51
2022/03/15 04:09:55;;;;;;;28.77;14.52;;;;;;;6.02;100.00;102640.84;5035851;28;20016;-51
2022/03/15 04:12:23;;;;;;;27.15;14.00;;;;;;;6.03;100.00;102637.28;5044951;28;20024;-51
2022/03/15 04:14:49;;;;;;;25.80;14.80;;;;;;;6.01;100.00;102639.13;5051660;28;20130;-52
2022/03/15 04:17:15;;;;;;;27.10;13.82;;;;;;;6.01;100.00;102647.09;5048980;28;20032;-51
2022/03/15 04:19:40;;;;;;;22.27;14.38;;;;;;;6.00;100.00;102638.28;5050962;28;20543;-51
2022/03/15 04:22:06;;;;;;;24.27;14.15;;;;;;;6.00;100.00;102642.75;5051839;28;20039;-48
2022/03/15 04:24:32;;;;;;;27.20;14.77;;;;;;;6.01;100.00;102640.00;5031678;28;20292;-50
2022/03/15 04:26:59;;;;;;;26.65;13.77;;;;;;;6.00;100.00;102637.44;5034186;28;20473;-52
2022/03/15 04:29:25;;;;;;;25.13;14.25;;;;;;;6.00;100.00;102640.09;5051585;28;20103;-49
2022/03/15 04:31:51;;;;;;;28.80;14.77;;;;;;;6.01;100.00;102639.13;5050411;28;20056;-51
2022/03/15 04:34:17;;;;;;;25.58;15.00;;;;;;;6.01;100.00;102639.13;5051087;28;20016;-51
2022/03/15 04:36:43;;;;;;;27.63;15.38;;;;;;;6.00;100.00;102632.97;5051128;28;20383;-51
2022/03/15 04:39:08;;;;;;;29.35;14.13;;;;;;;6.02;100.00;102638.19;5046057;28;20029;-51
2022/03/15 04:41:33;;;;;;;30.50;14.63;;;;;;;6.01;100.00;102626.75;5037551;28;20021;-52
2022/03/15 04:43:58;;;;;;;31.23;14.63;;;;;;;5.99;100.00;102620.66;5031088;28;20045;-53
2022/03/15 04:46:24;;;;;;;28.77;14.98;;;;;;;5.98;100.00;102621.63;5034188;28;20356;-47
2022/03/15 04:48:49;;;;;;;23.60;14.15;;;;;;;5.97;100.00;102623.41;5039605;28;20086;-51
2022/03/15 04:51:14;;;;;;;29.73;15.30;;;;;;;5.97;100.00;102622.53;5053079;28;20028;-51
2022/03/15 04:53:40;;;;;;;26.13;15.05;;;;;;;5.97;100.00;102626.06;5041378;28;20040;-51
2022/03/15 04:56:05;;;;;;;25.70;14.82;;;;;;;5.95;100.00;102624.41;5054836;28;20074;-47
2022/03/15 04:58:31;;;;;;;27.40;14.77;;;;;;;5.92;100.00;102616.63;5054845;28;20177;-49
2022/03/15 05:00:56;;;;;;;29.23;14.80;;;;;;;5.92;100.00;102616.63;5037226;28;20033;-52
2022/03/15 05:03:21;;;;;;;24.05;14.43;;;;;;;5.89;100.00;102616.78;5054447;28;20036;-51
2022/03/15 05:05:46;;;;;;;31.00;15.13;;;;;;;5.87;100.00;102619.56;5055125;28;20025;-52
2022/03/15 05:08:12;;;;;;;25.73;14.30;;;;;;;5.88;100.00;102621.25;5054143;28;20163;-51
2022/03/15 05:13:21;;;;;;;28.88;14.13;;;;;;;5.88;100.00;102613.28;5044877;28;20387;-52
2022/03/15 05:15:47;;;;;;;31.17;14.27;;;;;;;5.87;100.00;102618.66;5037501;28;20207;-53
2022/03/15 05:18:13;;;;;;;27.88;14.40;;;;;;;5.86;100.00;102606.38;5052592;28;20486;-52
2022/03/15 05:20:39;;;;;;;27.58;15.07;;;;;;;5.84;100.00;102610.88;5053684;28;20031;-51
2022/03/15 05:23:04;;;;;;;31.20;14.85;;;;;;;5.82;100.00;102603.00;5045631;28;20542;-50
2022/03/15 05:25:30;;;;;;;27.40;14.68;;;;;;;5.80;100.00;102604.91;5053104;28;20029;-53
2022/03/15 05:27:55;;;;;;;25.27;14.50;;;;;;;5.81;100.00;102605.78;5053882;28;20156;-52
2022/03/15 05:30:21;;;;;;;29.25;14.52;;;;;;;5.79;100.00;102608.50;5053188;28;20048;-55
2022/03/15 05:32:46;;;;;;;27.60;14.43;;;;;;;5.81;100.00;102608.44;5034171;28;20024;-52
2022/03/15 05:35:11;;;;;;;31.00;14.88;;;;;;;5.79;100.00;102605.88;5052903;28;20056;-51
2022/03/15 05:37:37;;;;;;;27.15;14.32;;;;;;;5.79;100.00;102601.41;5052682;28;20075;-51
2022/03/15 05:40:03;;;;;;;28.50;14.50;;;;;;;5.76;100.00;102604.22;5054123;28;20056;-49
2022/03/15 05:42:28;;;;;;;25.65;13.85;;;;;;;5.77;100.00;102602.41;5035102;28;20036;-52
2022/03/15 05:44:54;;;;;;;25.17;13.93;;;;;;;5.79;100.00;102601.41;5053959;28;20043;-49
2022/03/15 05:47:19;;;;;;;26.08;13.80;;;;;;;5.76;100.00;102596.28;5045059;28;20028;-52
2022/03/15 05:49:44;;;;;;;39.03;13.82;;;;;;;5.78;100.00;102599.69;5050553;28;20539;-51
2022/03/15 05:52:10;;;;;;;27.02;13.48;;;;;;;5.76;100.00;102598.06;5052510;28;20032;-50
2022/03/15 05:54:35;;;;;;;24.88;13.77;;;;;;;5.77;100.00;102591.81;5052098;28;20036;-51
2022/03/15 05:57:01;;;;;;;25.95;13.50;;;;;;;5.79;100.00;102584.66;5047731;28;20051;-51
2022/03/15 05:59:26;;;;;;;23.95;12.73;;;;;;;5.77;100.00;102581.22;5033199;28;20513;-48
2022/03/15 06:01:51;;;;;;;24.90;13.27;;;;;;;5.77;100.00;102587.38;5051721;28;20515;-49
2022/03/15 06:04:17;;;;;;;24.52;13.23;;;;;;;5.77;100.00;102579.44;5048770;28;20035;-51
2022/03/15 06:06:42;;;;;;;36.63;13.50;;;;;;;5.80;100.00;102575.75;5046370;28;20024;-52
2022/03/15 06:09:08;;;;;;;26.13;12.20;;;;;;;5.82;100.00;102584.44;5051990;28;20385;-49
2022/03/15 06:11:39;;;;;;;25.95;13.07;;;;;;;5.82;100.00;102580.97;5042975;28;20437;-49
2022/03/15 06:14:04;;;;;;;21.98;12.77;;;;;;;5.83;100.00;102577.38;5043775;28;20123;-51
2022/03/15 06:16:29;;;;;;;30.70;12.80;;;;;;;5.86;100.00;102574.56;5051059;28;20111;-50
2022/03/15 06:18:54;;;;;;;23.80;12.77;;;;;;;5.86;100.00;102571.91;5051430;28;20033;-49
2022/03/15 06:21:20;;;;;;;24.50;12.93;;;;;;;5.87;100.00;102573.59;5031796;28;20067;-50
2022/03/15 06:23:45;;;;;;;22.60;12.45;;;;;;;5.88;100.00;102573.50;5050966;28;20046;-51
2022/03/15 06:26:10;;;;;;;21.25;12.25;;;;;;;5.88;100.00;102572.66;5052580;28;20344;-51
2022/03/15 06:28:36;;;;;;;24.35;13.18;;;;;;;5.86;100.00;102570.09;5051839;28;20052;-47
2022/03/15 06:31:03;;;;;;;30.98;13.60;;;;;;;5.89;100.00;102583.19;5049207;28;20032;-47
2022/03/15 06:33:29;;;;;;;22.67;12.63;;;;;;;5.92;100.00;102582.13;5033322;28;20028;-50
2022/03/15 06:35:55;;;;;;;25.50;13.20;;;;;;;5.89;100.00;102579.66;5051597;28;20475;-50
2022/03/15 06:38:20;;;;;;;27.17;13.32;;;;;;;5.95;100.00;102574.84;5066923;28;20502;-51
2022/03/15 06:40:46;;;;;;;24.17;13.23;;;;;;;5.97;100.00;102566.84;5073457;28;20806;-51
2022/03/15 06:43:13;;;;;;;26.83;13.65;;;;;;;6.03;100.00;102561.19;5073536;28;20062;-51
2022/03/15 06:45:41;;;;;;;24.20;13.13;;;;;;;6.05;100.00;102567.25;5071678;28;20448;-50
2022/03/15 06:48:07;;;;;;;22.02;13.07;;;;;;;6.06;100.00;102561.03;5072817;28;20164;-50
2022/03/15 06:50:33;;;;;;;27.23;13.05;;;;;;;6.08;100.00;102564.44;5072391;28;20109;-49
2022/03/15 06:52:58;;;;;;;26.02;13.00;;;;;;;6.10;100.00;102554.59;5067227;28;20034;-50
2022/03/15 06:55:24;;;;;;;24.88;13.20;;;;;;;6.15;100.00;102562.28;5072349;28;20032;-51
2022/03/15 06:57:49;;;;;;;22.50;12.70;;;;;;;6.16;100.00;102556.03;5070260;28;20093;-49
2022/03/15 07:00:15;;;;;;;24.27;12.43;;;;;;;6.18;100.00;102559.47;5070922;28;20139;-51
2022/03/15 07:02:40;;;;;;;24.60;12.98;;;;;;;6.23;100.00;102556.50;5066605;28;20077;-48
2022/03/15 07:05:06;;;;;;;25.88;12.45;;;;;;;6.25;100.00;102555.50;5072720;28;20517;-51
2022/03/15 07:07:32;;;;;;;29.88;12.60;;;;;;;6.27;100.00;102556.25;5072612;28;20478;-51
2022/03/15 07:09:57;;;;;;;28.38;12.35;;;;;;;6.28;100.00;102562.41;5071006;28;20056;-51
2022/03/15 07:12:24;;;;;;;25.05;12.38;;;;;;;6.30;100.00;102563.19;5073087;28;20327;-48
2022/03/15 07:14:49;;;;;;;25.90;12.43;;;;;;;6.29;100.00;102564.97;5071811;28;20071;-51
2022/03/15 07:17:16;;;;;;;26.60;12.13;;;;;;;6.32;100.00;102562.13;5072162;28;20031;-49
2022/03/15 07:19:41;;;;;;;25.17;12.15;;;;;;;6.34;100.00;102560.25;5073163;28;20480;-48
2022/03/15 07:22:06;;;;;;;28.73;12.77;;;;;;;6.37;100.00;102564.53;5061227;28;20119;-51
2022/03/15 07:24:32;;;;;;;30.50;13.02;;;;;;;6.40;100.00;102561.69;5072168;28;20145;-51
2022/03/15 07:26:58;;;;;;;23.92;12.25;;;;;;;6.45;100.00;102558.75;5072307;28;20020;-50
2022/03/15 07:29:23;;;;;;;24.08;10.85;;;;;;;6.47;100.00;102544.44;5064612;28;20076;-50
2022/03/15 07:31:49;;;;;;;22.10;11.27;;;;;;;6.53;100.00;102549.41;5071087;28;20048;-49
2022/03/15 07:34:14;;;;;;;21.48;11.55;;;;;;;6.56;100.00;102548.34;5070079;28;20424;-50
2022/03/15 07:36:39;;;;;;;19.55;10.73;;;;;;;6.60;100.00;102544.56;5072270;28;20020;-51
2022/03/15 07:39:05;;;;;;;20.83;11.10;;;;;;;6.64;100.00;102539.94;5072574;28;20741;-48
2022/03/15 07:41:33;;;;;;;23.27;11.05;;;;;;;6.66;100.00;102535.38;5072411;28;20307;-50
2022/03/15 07:43:58;;;;;;;20.25;9.90;;;;;;;6.69;100.00;102537.84;5067251;28;20062;-50
2022/03/15 07:46:24;;;;;;;22.10;10.32;;;;;;;6.75;100.00;102534.78;5072282;28;20370;-50
2022/03/15 07:48:49;;;;;;;21.83;9.70;;;;;;;6.78;100.00;102536.44;5070526;28;20094;-50
2022/03/15 07:51:14;;;;;;;26.23;10.13;;;;;;;6.80;100.00;102522.09;5069170;28;20449;-49
2022/03/15 07:53:40;;;;;;;22.02;9.98;;;;;;;6.83;100.00;102526.38;5071200;28;20241;-51
2022/03/15 07:56:05;;;;;;;20.27;9.68;;;;;;;6.87;100.00;102525.22;5054581;28;20490;-48
2022/03/15 07:58:30;;;;;;;22.98;10.15;;;;;;;6.93;100.00;102531.97;5070073;28;20092;-52
2022/03/15 08:00:57;;;;;;;20.05;9.30;;;;;;;6.94;100.00;102528.34;5069016;28;20402;-52
2022/03/15 08:03:23;;;;;;;19.02;9.48;;;;;;;6.95;100.00;102544.19;5051430;28;20044;-51
2022/03/15 08:05:49;;;;;;;17.17;9.13;;;;;;;6.89;100.00;102531.28;5057936;28;20365;-51
2022/03/15 08:08:15;;;;;;;22.60;9.20;;;;;;;6.93;100.00;102531.97;5071377;28;20413;-49
2022/03/15 08:10:41;;;;;;;18.02;8.90;;;;;;;6.98;100.00;102535.19;5070039;28;20069;-51
2022/03/15 08:13:06;;;;;;;27.40;9.43;;;;;;;7.05;100.00;102537.34;5071594;28;20635;-50
2022/03/15 08:15:31;;;;;;;19.92;8.95;;;;;;;7.09;100.00;102530.03;5071758;28;20172;-50
2022/03/15 08:17:56;;;;;;;21.55;9.45;;;;;;;7.13;100.00;102536.00;5071469;28;20459;-51
2022/03/15 08:20:23;;;;;;;17.85;8.48;;;;;;;7.18;100.00;102531.25;5071429;28;20109;-51
2022/03/15 08:22:48;;;;;;;19.58;8.65;;;;;;;7.22;100.00;102522.16;5071680;28;20449;-50
2022/03/15 08:25:14;;;;;;;21.10;8.88;;;;;;;7.24;100.00;102523.75;5069690;28;20025;-50
2022/03/15 08:27:39;;;;;;;27.10;8.65;;;;;;;7.26;100.00;102521.88;5055929;28;20039;-48
2022/03/15 08:30:05;;;;;;;24.60;9.57;;;;;;;7.28;100.00;102522.63;5063712;28;20474;-50
2022/03/15 08:32:31;;;;;;;41.80;12.35;;;;;;;7.32;100.00;102523.28;5064815;28;20107;-49
2022/03/15 08:34:56;;;;;;;44.13;19.33;;;;;;;7.36;100.00;102513.28;5074343;28;20485;-51
2022/03/15 08:37:21;;;;;;;89.03;33.42;;;;;;;7.42;100.00;102511.09;5067723;28;20176;-54
2022/03/15 08:39:47;;;;;;;97.88;38.95;;;;;;;7.43;100.00;102507.50;5055558;28;20032;-52
2022/03/15 08:42:12;;;;;;;58.22;23.40;;;;;;;7.48;100.00;102507.19;5055256;28;20032;-53
2022/03/15 08:44:38;;;;;;;39.33;15.07;;;;;;;7.55;100.00;102505.84;5055345;28;20025;-51
2022/03/15 08:47:03;;;;;;;19.65;8.73;;;;;;;7.59;100.00;102509.16;5054855;28;20173;-48
2022/03/15 08:49:29;;;;;;;19.70;8.60;;;;;;;7.64;100.00;102505.22;5055036;28;20036;-49
2022/03/15 08:51:54;;;;;;;21.50;8.18;;;;;;;7.72;100.00;102509.19;5055033;28;20033;-53
2022/03/15 08:54:20;;;;;;;14.65;7.85;;;;;;;7.76;100.00;102505.38;5052497;28;20027;-49
2022/03/15 08:56:46;;;;;;;19.20;7.65;;;;;;;7.77;100.00;102496.44;5055018;28;20036;-50
2022/03/15 08:59:15;;;;;;;21.58;8.07;;;;;;;7.85;100.00;102500.28;5053812;28;20024;-49
2022/03/15 09:01:41;;;;;;;26.83;10.30;;;;;;;7.89;100.00;102495.63;5053093;28;20553;-50
2022/03/15 09:04:06;;;;;;;28.45;11.63;;;;;;;7.95;100.00;102499.69;5054642;28;20028;-49
2022/03/15 09:06:32;;;;;;;41.58;17.10;;;;;;;8.04;100.00;102501.72;5055384;28;20051;-50
2022/03/15 09:09:00;;;;;;;89.45;36.70;;;;;;;8.10;100.00;102506.63;5036178;28;20056;-49
2022/03/15 09:11:26;;;;;;;99.72;41.40;;;;;;;8.16;100.00;102500.91;5055107;28;20471;-51
2022/03/15 09:13:52;;;;;;;108.32;44.55;;;;;;;8.27;100.00;102499.31;5036593;28;20748;-48
2022/03/15 09:16:17;;;;;;;107.13;43.22;;;;;;;8.36;100.00;102501.31;5053177;28;20111;-51
2022/03/15 09:18:43;;;;;;;63.55;24.30;;;;;;;8.45;100.00;102495.38;5054152;28;20533;-53
2022/03/15 09:21:09;;;;;;;37.83;14.52;;;;;;;8.55;100.00;102495.59;5054730;28;20024;-51
2022/03/15 09:23:34;;;;;;;25.92;10.88;;;;;;;8.61;100.00;102499.66;5054076;28;20398;-49
2022/03/15 09:26:00;;;;;;;22.00;9.80;;;;;;;8.72;100.00;102499.75;5054274;28;20043;-51
2022/03/15 09:28:25;;;;;;;22.70;10.00;;;;;;;8.76;100.00;102499.44;5054588;28;20012;-49
2022/03/15 09:30:51;;;;;;;20.77;8.98;;;;;;;8.84;100.00;102490.03;5054438;28;20134;-52
2022/03/15 09:33:16;;;;;;;19.15;8.75;;;;;;;8.93;100.00;102497.38;5053992;28;20405;-48
2022/03/15 09:35:42;;;;;;;27.77;11.05;;;;;;;9.00;100.00;102493.31;5054344;28;20033;-51
2022/03/15 09:38:07;;;;;;;29.40;11.07;;;;;;;9.06;100.00;102494.69;5047737;28;20340;-52
2022/03/15 09:40:33;;;;;;;26.52;12.40;;;;;;;9.17;100.00;102493.91;5054582;28;20394;-51
2022/03/15 09:43:01;;;;;;;31.58;14.63;;;;;;;9.22;100.00;102489.09;5047807;28;20075;-48
2022/03/15 09:45:33;;;;;;;27.10;12.57;;;;;;;9.30;100.00;102487.59;5035210;28;20025;-50
2022/03/15 09:48:01;;;;;;;31.35;14.18;;;;;;;9.31;99.49;102483.94;5034265;28;20097;-51
2022/03/15 09:50:27;;;;;;;38.50;16.67;;;;;;;9.34;99.46;102482.88;5034681;28;20048;-49
2022/03/15 09:52:54;;;;;;;36.70;18.48;;;;;;;9.39;99.53;102480.72;5035809;28;20040;-51
2022/03/15 09:55:20;;;;;;;41.55;18.70;;;;;;;9.51;99.88;102484.28;5054243;28;20317;-50
2022/03/15 09:57:45;;;;;;;57.85;22.70;;;;;;;9.57;98.54;102485.66;5044240;28;20101;-52
2022/03/15 10:00:12;;;;;;;60.35;25.90;;;;;;;9.60;98.05;102480.94;5033465;28;20467;-50
2022/03/15 10:02:40;;;;;;;62.88;25.55;;;;;;;9.63;97.19;102480.72;5041552;28;20213;-51
2022/03/15 10:05:06;;;;;;;38.35;17.00;;;;;;;9.71;97.79;102474.81;5052962;28;20435;-51
2022/03/15 10:07:32;;;;;;;34.10;12.30;;;;;;;9.77;96.63;102470.81;5045861;28;20114;-52
2022/03/15 10:10:00;;;;;;;26.65;10.65;;;;;;;9.76;95.33;102466.44;5048968;28;20084;-52
2022/03/15 10:12:25;;;;;;;30.95;13.02;;;;;;;9.79;96.95;102471.53;5054138;28;20641;-51
2022/03/15 10:14:51;;;;;;;34.30;11.85;;;;;;;9.89;96.40;102469.88;5054712;28;20335;-52
2022/03/15 10:17:16;;;;;;;22.40;10.48;;;;;;;9.94;95.92;102470.38;5051761;28;20150;-53
2022/03/15 10:19:53;;;;;;;25.00;10.13;;;;;;;10.03;95.90;102468.81;5053981;28;20031;-52
2022/03/15 10:22:25;;;;;;;22.92;8.45;;;;;;;10.02;92.60;102462.63;5053829;28;20552;-50
2022/03/15 10:24:50;;;;;;;21.30;8.93;;;;;;;10.07;92.99;102460.47;5043455;28;20099;-52
2022/03/15 10:27:17;;;;;;;22.70;9.43;;;;;;;10.12;93.04;102457.44;5033859;28;20188;-52
2022/03/15 10:29:43;;;;;;;25.08;10.13;;;;;;;10.15;92.55;102467.03;5041435;28;20152;-52
2022/03/15 10:32:09;;;;;;;22.60;8.88;;;;;;;10.19;90.48;102452.50;5044443;28;20454;-52
2022/03/15 10:34:35;;;;;;;26.38;9.95;;;;;;;10.15;88.95;102445.66;5050502;28;20025;-52
2022/03/15 10:37:00;;;;;;;23.30;10.45;;;;;;;10.15;91.31;102451.00;5052493;28;20036;-51
2022/03/15 10:39:26;;;;;;;25.27;11.98;;;;;;;10.18;89.66;102443.63;5049429;28;20090;-51
2022/03/15 10:41:58;;;;;;;24.83;11.63;;;;;;;10.13;88.43;102443.13;5044209;28;20131;-51
2022/03/15 10:44:30;;;;;;;25.65;11.35;;;;;;;10.21;90.14;102438.03;5051362;28;20447;-49
2022/03/15 10:46:57;;;;;;;27.38;11.75;;;;;;;10.25;90.65;102434.19;5051323;28;20024;-50
2022/03/15 10:49:23;;;;;;;32.33;11.80;;;;;;;10.36;89.58;102427.19;5049755;28;20017;-50
2022/03/15 10:51:48;;;;;;;24.05;10.35;;;;;;;10.42;89.86;102426.66;5048352;28;20073;-52
2022/03/15 10:54:16;;;;;;;23.20;9.68;;;;;;;10.43;89.45;102429.22;5049740;28;20071;-52
2022/03/15 10:56:50;;;;;;;28.90;13.10;;;;;;;10.50;88.65;102426.91;5046455;28;20021;-51
2022/03/15 10:59:15;;;;;;;51.40;27.92;;;;;;;10.53;88.68;102420.50;5051895;28;20024;-51
2022/03/15 11:01:41;;;;;;;42.95;22.23;;;;;;;10.49;88.33;102421.69;5042047;28;20351;-53
2022/03/15 11:04:09;;;;;;;29.60;9.20;;;;;;;10.45;88.48;102411.28;5045356;28;20039;-51
2022/03/15 11:06:41;;;;;;;17.88;8.23;;;;;;;10.43;88.57;102407.84;5033049;28;20025;-48